Flugplatz Hahn (EDFH)

Hier findest Du alle Informationen zum Flugplatz Hahn (EDFH).

Informationen für Piloten zum Flugplatz Hahn

Hier findest Du alle relevanten Informationen, die Du als Pilot benötigst, um Hahn anzufliegen.

Flugplatz: Hahn ICAO-Code: EDFH
Frequenz Turm: 119,650 Mhz GAFOR Gebiet: 41
Frequenz Ground: 119,650 Mhz Mogas: nein
Platzrunde: - Landegebühr: -
Platzhöhe: - Sunrise: 07:18 Uhr UTC
Pisten: 03/21 - 2.745 m x , ASPH Sunset: 16:03 Uhr UTC

Mitglieder, die in Hahn fliegen

Flugwetter am Flugplatz Hahn

Die METAR Information stammen aus EDFH.

METAR Code:
2021/11/13 15:50
EDFH 131550Z 23006KT 2500 -RA BR BKN003 08/08 Q1013

Temperatur: 4,2 °C Niederschlag: - Wind: 2,0 kt
Temperatur (min.): 2,8 °C Luftdruck: 1037 hPa Windrichtung: -
Temperatur (max.): 6,0 °C Luftfeuchtigkeit: 95 % Bewölkung: 6/8

Flugschulen am Flugplatz Hahn

Am Flugplatz Hahn gibt es leider keine Flugschule.

Benachbarte Flugplätze und Flugschulen

Es gibt 20 weitere Flugplätze in einem Umkreis von 50 km um den Flugplatz Hahn.

Jetzt anmelden

Passwort vergessen

Umfrage Archiv

Welche Navigations-App nutzt Ihr im Cockpit

SkyDemon
50.6 %
VFRnav
19.4 %
Ich nutze eine andere App
17.8 %
EasyVFR
5.3 %
Ich nutze gar keine App
5.3 %
ForeFlight
1.6 %
Stimmen: 247 | Diskussion (45)
Anzeige: Roland Aircraft
Statistik Alle Mitglieder

Aktuell sind 67 Besucher online, davon 5 Mitglieder und 62 Gäste.


Mitglieder online:
fl95  sukram  aviatrix  PeterBreez  pedrob 

Anzeige: Pocket FMS